Latest Weather Observations for Ouse

IDT60801

Issued at 9:35 pm EST Tuesday 30 September 2014 (issued every 30 minutes, with the page automatically refreshed every 10 minutes)

About weather observations | Map of weather stations | Latest weather observations for TAS | Other Formats
Station Details ID: 095048 Name: OUSE FIRE STATION Lat: -42.48 Lon: 146.71 Height: 90.0 m
Data from the previous 72 hours. | See also: Recent months at Ouse
Date/Time
EST
Temp
°C
App
Temp
°C
Dew
Point
Rel
Hum
%
Delta-T
°C
Wind Press
QNH
hPa
Press
MSL
hPa
Rain
since 9 am
mm
Dir
 
Spd
km/h
Gust
km/h
Spd
kts
Gust
kts
30/09:30pm 5.2 1.6 2.7 84 1.0 N 11 17 6 9 1002.9 1003.0 2.4
30/09:00pm 5.5 1.5 3.0 84 1.0 NNE 13 15 7 8 1002.6 1002.7 2.4
30/08:30pm 5.9 1.8 2.5 79 1.4 NNW 13 19 7 10 1002.2 1002.3 2.4
30/08:00pm 5.5 1.5 2.7 82 1.2 N 13 17 7 9 1001.4 1001.5 2.4
30/07:30pm 5.7 2.0 2.5 80 1.3 N 11 17 6 9 1000.8 1000.9 2.4
30/07:00pm 6.6 2.9 2.1 73 1.9 NNW 11 17 6 9 1000.0 1000.1 2.4
30/06:30pm 7.1 3.7 2.0 70 2.1 WNW 9 15 5 8 1000.0 1000.1 2.4
30/06:09pm 7.9 1.1 3.0 71 2.1 W 28 54 15 29 999.6 999.7 2.4
30/06:00pm 8.4 3.9 4.4 76 1.8 W 17 19 9 10 998.8 998.9 2.4
30/05:30pm 8.9 4.1 4.9 76 1.8 WNW 19 33 10 18 997.9 998.0 2.4
30/05:00pm 9.8 5.6 5.8 76 1.9 WNW 17 30 9 16 996.6 996.7 2.4
30/04:30pm 10.8 5.9 5.3 69 2.5 WNW 20 33 11 18 995.2 995.3 2.4
30/04:00pm 11.1 8.5 7.8 80 1.6 NNW 11 15 6 8 994.3 994.3 2.4
30/03:30pm 11.1 7.6 7.4 78 1.8 NW 15 20 8 11 994.0 994.0 2.4
30/03:00pm 11.4 8.4 7.5 77 1.9 NNW 13 19 7 10 993.8 993.8 2.4
30/02:30pm 10.5 8.5 8.8 89 0.8 N 9 15 5 8 994.7 994.7 2.4
30/02:00pm 9.8 6.8 7.7 87 1.0 NNW 13 22 7 12 995.0 995.1 2.2
30/01:30pm 10.5 6.6 7.2 80 1.6 NW 17 26 9 14 995.1 995.2 1.0
30/01:00pm 12.2 8.2 8.1 76 2.0 W 19 30 10 16 994.9 995.0 0.8
30/12:48pm 12.4 5.0 8.3 76 2.0 WNW 37 56 20 30 994.3 994.3 0.4
30/12:44pm 13.6 6.0 8.9 73 2.4 WNW 39 56 21 30 993.8 993.8 0.4
30/12:30pm 15.4 12.0 9.3 67 3.2 NNW 17 33 9 18 993.0 993.1 0.2
30/12:00pm 15.6 12.6 9.3 66 3.3 NNW 15 28 8 15 993.4 993.4 0.2
30/11:30am 15.1 12.4 10.3 73 2.5 NW 15 22 8 12 994.3 994.3 0.2
30/11:00am 14.3 10.6 10.1 76 2.2 NW 20 32 11 17 995.1 995.2 0.2
30/10:30am 16.9 12.2 9.3 61 4.0 WNW 24 35 13 19 995.3 995.4 0.0
30/10:00am 18.4 12.8 8.9 54 5.0 NW 28 57 15 31 995.1 995.2 0.0
30/09:32am 17.2 11.3 7.3 52 5.0 NW 28 46 15 25 995.7 995.8 0.0
30/09:30am 17.1 11.9 7.2 52 5.0 NW 24 46 13 25 995.7 995.8 0.0
30/09:20am 16.6 10.2 7.0 53 4.8 NW 30 50 16 27 995.9 996.0 0.0
30/09:19am 16.6 9.6 6.7 52 4.9 NW 33 50 18 27 996.0 996.1 0.0
30/09:00am 15.7 13.2 6.7 55 4.5 NNW 9 17 5 9 996.3 996.4 0.0
30/08:30am 15.8 11.7 6.3 53 4.6 N 17 32 9 17 996.9 997.0 0.0
30/08:00am 14.6 11.8 6.9 60 3.8 N 11 20 6 11 997.4 997.5 0.0
30/07:30am 13.4 10.5 6.5 63 3.3 N 11 17 6 9 998.4 998.5 0.0
30/07:00am 12.3 9.1 7.0 70 2.6 N 13 15 7 8 998.4 998.5 0.0
30/06:30am 8.8 4.9 5.2 78 1.6 N 15 17 8 9 998.5 998.6 0.0
30/06:00am 8.2 4.2 4.8 79 1.5 N 15 20 8 11 999.0 999.1 0.0
30/05:30am 8.6 5.0 4.8 77 1.7 N 13 19 7 10 999.3 999.4 0.0
30/05:00am 10.1 6.5 5.1 71 2.3 NNW 13 24 7 13 999.8 999.9 0.0
30/04:30am 11.5 7.6 5.4 66 2.8 NNW 15 28 8 15 1000.3 1000.4 0.0
30/04:00am 12.7 8.1 5.8 63 3.3 N 19 24 10 13 1000.5 1000.6 0.0
30/03:30am 12.9 9.4 5.6 61 3.4 N 13 19 7 10 1000.7 1000.8 0.0
30/03:00am 12.0 8.4 5.2 63 3.2 N 13 20 7 11 1001.1 1001.2 0.0
30/02:30am 12.9 8.9 5.1 59 3.6 N 15 20 8 11 1001.5 1001.6 0.0
30/02:00am 13.8 10.2 5.2 56 4.1 NNW 13 26 7 14 1002.0 1002.1 0.0
30/01:30am 13.9 9.1 5.8 58 3.9 NNW 20 35 11 19 1002.4 1002.5 0.0
30/01:00am 13.9 9.4 6.0 59 3.8 NNW 19 28 10 15 1002.7 1002.8 0.0
30/12:30am 14.0 8.9 5.9 58 3.9 NNW 22 33 12 18 1002.8 1002.9 0.0
30/12:00am 13.9 8.4 6.0 59 3.8 NW 24 39 13 21 1002.9 1003.0 0.0
 
Date/Time
EST
Temp
°C
App
Temp
°C
Dew
Point
Rel
Hum
%
Delta-T
°C
Wind Press
QNH
hPa
Press
MSL
hPa
Rain
since 9 am
mm
Dir
 
Spd
km/h
Gust
km/h
Spd
kts
Gust
kts
29/11:30pm 13.8 9.1 5.9 59 3.8 NW 20 35 11 19 1003.1 1003.2 0.0
29/11:00pm 13.4 8.7 5.3 58 3.8 NW 19 35 10 19 1003.4 1003.5 0.0
29/10:31pm 13.9 7.5 5.3 56 4.1 NW 28 46 15 25 1003.6 1003.7 0.0
29/10:30pm 13.9 7.5 5.3 56 4.1 NW 28 41 15 22 1003.6 1003.7 0.0
29/10:00pm 13.2 7.5 5.1 58 3.8 NW 24 37 13 20 1003.6 1003.7 0.0
29/09:30pm 13.3 7.2 5.0 57 3.9 NW 26 41 14 22 1003.8 1003.9 0.0
29/09:02pm 13.5 6.3 4.9 56 4.0 WNW 32 50 17 27 1004.2 1004.4 0.0
29/09:00pm 13.5 6.1 5.2 57 3.9 WNW 33 50 18 27 1004.2 1004.4 0.0
29/08:35pm 13.1 6.6 4.8 57 3.8 NW 28 48 15 26 1004.0 1004.2 0.0
29/08:30pm 12.6 7.2 4.6 58 3.7 NW 22 33 12 18 1004.0 1004.2 0.0
29/08:00pm 12.9 7.0 4.1 55 4.0 NW 24 39 13 21 1003.9 1004.0 0.0
29/07:30pm 12.8 7.8 3.5 53 4.2 NNW 19 32 10 17 1003.9 1004.0 0.0
29/07:00pm 13.4 7.0 3.2 50 4.6 NW 26 44 14 24 1003.8 1003.9 0.0
29/06:32pm 13.9 7.1 3.1 48 4.9 WNW 28 46 15 25 1004.0 1004.2 0.0
29/06:30pm 13.9 7.5 3.1 48 4.9 NW 26 46 14 25 1004.0 1004.2 0.0
29/06:00pm 14.4 7.6 2.9 46 5.2 WNW 28 43 15 23 1003.4 1003.5 0.0
29/05:40pm 14.8 8.0 3.3 46 5.2 WNW 28 46 15 25 1003.4 1003.5 0.0
29/05:30pm 15.0 9.0 3.5 46 5.3 WNW 24 33 13 18 1003.4 1003.5 0.0
29/05:00pm 16.2 11.7 4.3 45 5.6 NW 17 32 9 17 1002.8 1002.9 0.0
29/04:30pm 16.5 10.7 4.2 44 5.8 NW 24 39 13 21 1003.0 1003.1 0.0
29/04:00pm 16.7 9.8 4.4 44 5.8 NW 30 48 16 26 1002.8 1002.9 0.0
29/03:55pm 16.8 10.2 4.2 43 5.9 NW 28 48 15 26 1002.8 1002.9 0.0
29/03:30pm 17.1 12.3 5.7 47 5.5 NW 20 39 11 21 1003.1 1003.2 0.0
29/03:00pm 16.5 9.5 4.2 44 5.8 WNW 30 48 16 26 1003.5 1003.6 0.0
29/02:30pm 17.0 10.1 4.7 44 5.9 WNW 30 59 16 32 1003.9 1004.0 0.0
29/02:02pm 16.5 9.9 4.2 44 5.8 NW 28 46 15 25 1004.1 1004.3 0.0
29/02:00pm 16.5 9.5 3.9 43 5.9 NW 30 46 16 25 1004.1 1004.3 0.0
29/01:31pm 16.7 10.1 4.4 44 5.8 WNW 28 48 15 26 1004.2 1004.4 0.0
29/01:30pm 17.0 10.6 5.0 45 5.8 WNW 28 44 15 24 1004.2 1004.4 0.0
29/01:00pm 16.4 8.7 2.4 39 6.4 WNW 32 52 17 28 1004.2 1004.4 0.0
29/12:30pm 16.5 9.8 3.9 43 5.9 NW 28 50 15 27 1004.4 1004.6 0.0
29/12:00pm 15.7 8.0 2.2 40 6.1 WNW 32 57 17 31 1004.8 1004.9 0.0
29/11:30am 15.7 8.6 3.8 45 5.5 WNW 30 50 16 27 1004.6 1004.8 0.0
29/11:04am 15.1 8.2 2.6 43 5.6 WNW 28 52 15 28 1004.6 1004.8 0.0
29/11:00am 15.0 7.8 3.2 45 5.4 WNW 30 44 16 24 1004.6 1004.8 0.0
29/10:33am 14.6 7.8 4.9 52 4.6 WNW 30 48 16 26 1004.9 1005.0 0.0
29/10:30am 14.2 6.8 4.2 51 4.6 WNW 32 48 17 26 1005.0 1005.1 0.0
29/10:28am 14.3 7.4 4.6 52 4.5 WNW 30 48 16 26 1005.1 1005.2 0.0
29/10:00am 14.0 8.0 5.4 56 4.1 NNW 26 37 14 20 1004.9 1005.0 0.0
29/09:30am 14.0 8.3 5.1 55 4.2 W 24 37 13 20 1005.2 1005.3 0.0
29/09:00am 13.5 8.2 4.9 56 4.0 WNW 22 37 12 20 1004.9 1005.0 3.2
29/08:30am 12.7 6.1 4.4 57 3.8 W 28 41 15 22 1004.9 1005.0 3.2
29/08:00am 12.2 7.2 4.4 59 3.6 WNW 20 35 11 19 1004.3 1004.5 3.2
29/07:30am 11.2 7.2 5.1 66 2.8 WNW 15 26 8 14 1003.9 1004.0 3.2
29/07:00am 10.3 6.0 5.1 70 2.4 NW 17 24 9 13 1003.6 1003.7 3.2
29/06:30am 9.4 4.7 5.2 75 1.9 WNW 19 30 10 16 1002.9 1003.0 3.2
29/06:00am 9.7 4.9 4.5 70 2.3 NW 19 28 10 15 1002.1 1002.2 3.2
29/05:30am 9.1 5.2 5.5 78 1.6 NW 15 26 8 14 1001.4 1001.5 3.2
29/05:00am 9.0 4.5 6.1 82 1.3 NNW 19 28 10 15 1000.9 1001.0 3.2
29/04:30am 9.2 5.0 5.9 80 1.5 NNW 17 30 9 16 1000.6 1000.7 3.2
29/04:00am 9.5 4.4 6.0 79 1.6 NW 22 37 12 20 1000.3 1000.4 3.2
29/03:30am 9.6 4.2 6.5 81 1.4 NW 24 41 13 22 999.5 999.6 3.2
29/03:09am 10.4 4.5 7.3 81 1.5 NW 28 59 15 32 998.7 998.8 2.4
29/03:00am 10.7 6.2 7.0 78 1.8 WNW 20 39 11 21 998.4 998.5 1.0
29/02:30am 11.2 7.5 4.2 62 3.1 NNW 13 20 7 11 996.5 996.6 0.0
29/02:00am 10.7 7.2 3.5 61 3.2 NNW 11 15 6 8 996.9 997.0 0.0
29/01:30am 12.3 7.1 3.5 55 3.9 NNW 20 43 11 23 997.4 997.5 0.0
29/01:00am 13.1 7.2 3.7 53 4.3 NW 24 41 13 22 998.0 998.1 0.0
29/12:30am 13.0 7.9 3.9 54 4.1 NW 20 30 11 16 998.3 998.4 0.0
29/12:00am 12.8 9.1 2.6 50 4.5 NW 11 19 6 10 998.4 998.5 0.0
 
Date/Time
EST
Temp
°C
App
Temp
°C
Dew
Point
Rel
Hum
%
Delta-T
°C
Wind Press
QNH
hPa
Press
MSL
hPa
Rain
since 9 am
mm
Dir
 
Spd
km/h
Gust
km/h
Spd
kts
Gust
kts
28/11:30pm 13.8 8.4 2.7 47 4.9 WNW 20 32 11 17 998.0 998.1 0.0
28/11:00pm 14.4 9.8 3.5 48 5.0 WNW 17 24 9 13 997.9 998.0 0.0
28/10:30pm 15.5 11.3 5.7 52 4.7 NW 17 24 9 13 997.6 997.7 0.0
28/10:00pm 15.9 12.3 8.2 60 3.9 NW 17 28 9 15 997.6 997.7 0.0
28/09:30pm 16.4 13.4 9.1 62 3.8 NW 15 22 8 12 997.6 997.7 0.0
28/09:00pm 16.6 14.1 9.8 64 3.6 W 13 20 7 11 997.6 997.7 0.0
28/08:30pm 16.9 14.2 9.1 60 4.1 NW 13 17 7 9 997.7 997.8 0.0
28/08:00pm 17.0 14.1 9.7 62 3.9 NNW 15 32 8 17 997.6 997.7 0.0
28/07:30pm 15.9 13.9 10.0 68 3.1 N 11 15 6 8 997.8 997.9 0.0
28/07:00pm 16.8 15.1 10.0 64 3.6 N 9 15 5 8 997.8 997.9 0.0
28/06:30pm 18.5 15.2 9.6 56 4.7 WNW 17 32 9 17 997.3 997.4 0.0
28/06:00pm 20.2 14.7 9.2 49 5.9 NW 28 44 15 24 996.9 997.0 0.0
28/05:30pm 20.4 14.5 9.0 48 6.0 NW 30 46 16 25 997.0 997.1 0.0
28/05:28pm 20.6 14.7 9.2 48 6.1 NW 30 46 16 25 997.0 997.1 0.0
28/05:00pm 20.9 17.4 8.9 46 6.4 NNW 17 28 9 15 996.6 996.7 0.0
28/04:30pm 21.3 16.8 8.6 44 6.7 NNW 22 35 12 19 996.4 996.5 0.0
28/04:13pm 21.2 15.5 8.5 44 6.7 NNW 28 50 15 27 996.6 996.7 0.0
28/04:00pm 21.5 16.3 8.7 44 6.8 NNW 26 39 14 21 996.7 996.8 0.0
28/03:31pm 21.6 15.9 8.5 43 6.9 N 28 48 15 26 997.1 997.2 0.0
28/03:30pm 21.6 16.4 8.8 44 6.8 N 26 48 14 26 997.1 997.2 0.0
28/03:11pm 21.2 15.5 8.5 44 6.7 NNW 28 46 15 25 997.9 998.0 0.0
28/03:00pm 20.7 15.5 8.7 46 6.4 N 26 46 14 25 997.9 998.0 0.0
28/02:30pm 21.5 15.0 8.1 42 7.0 NNW 32 52 17 28 998.3 998.4 0.0
28/02:00pm 22.1 15.9 7.9 40 7.5 NNW 30 54 16 29 998.6 998.7 0.0
28/01:30pm 23.5 17.2 8.8 39 7.9 NNW 32 50 17 27 999.0 999.1 0.0
28/01:00pm 23.2 17.7 9.2 41 7.6 NNW 28 46 15 25 999.5 999.6 0.0
28/12:30pm 24.6 18.7 9.0 37 8.5 NNW 30 54 16 29 999.3 999.4 0.0
28/12:00pm 25.3 18.4 8.7 35 9.0 NNW 35 65 19 35 999.6 999.7 0.0
28/11:30am 26.1 18.1 9.0 34 9.4 NNW 41 67 22 36 999.9 1000.0 0.0
28/11:14am 26.5 19.1 8.5 32 9.8 NW 37 72 20 39 1000.5 1000.6 0.0
28/11:11am 26.3 14.6 6.3 28 10.5 NW 57 78 31 42 1000.5 1000.6 0.0
28/11:00am 26.4 19.7 9.7 35 9.3 NNW 35 65 19 35 1000.5 1000.6 0.0
28/10:30am 24.9 17.6 8.8 36 8.7 NNW 37 69 20 37 1000.4 1000.5 0.0
28/10:00am 23.7 17.6 9.7 41 7.7 NW 32 52 17 28 1000.8 1000.9 0.0
28/09:56am 23.5 17.6 9.1 40 7.8 NW 30 50 16 27 1000.9 1001.0 0.0
28/09:33am 22.2 17.0 10.4 47 6.5 NW 28 35 15 19 1001.4 1001.5 0.0
28/09:30am 21.4 20.6 11.7 54 5.4 E 7 15 4 8 1001.6 1001.7 0.0
28/09:00am 20.3 20.5 11.8 58 4.8 WSW 2 7 1 4 1002.5 1002.6 0.0
28/08:30am 19.7 18.5 11.5 59 4.5 W 9 13 5 7 1003.0 1003.1 0.0
28/08:00am 17.4 14.9 11.0 66 3.5 WNW 15 20 8 11 1003.9 1004.0 0.0
28/07:30am 14.1 12.9 13.9 99 0.1 NW 13 20 7 11 1004.4 1004.6 0.0
28/07:28am 13.5 12.1 13.5 100 0.0 NW 13 20 7 11 1004.5 1004.7 0.0
28/07:00am 7.7 6.0 7.7 100 0.0 ESE 6 9 3 5 1005.1 1005.2 0.0
28/06:30am 6.5 4.5 6.4 99 0.0 ENE 6 11 3 6 1005.3 1005.4 0.0
28/06:00am 6.7 4.8 6.6 99 0.0 S 6 11 3 6 1005.9 1006.0 0.0
28/05:30am 6.7 5.9 6.4 98 0.1 CALM 0 6 0 3 1006.1 1006.2 0.0
28/05:00am 7.0 5.5 6.7 98 0.1 NW 4 11 2 6 1006.5 1006.6 0.0
28/04:30am 7.3 5.5 7.0 98 0.1 NE 6 11 3 6 1007.0 1007.1 0.0
28/04:00am 7.3 5.8 7.0 98 0.1 E 4 7 2 4 1007.1 1007.2 0.0
28/03:30am 7.4 6.7 7.0 97 0.2 CALM 0 0 0 0 1007.6 1007.7 0.0
28/03:00am 7.4 5.9 6.8 96 0.3 N 4 9 2 5 1007.9 1008.0 0.0
28/02:30am 7.5 6.8 6.9 96 0.3 CALM 0 0 0 0 1008.3 1008.4 0.0
28/02:00am 7.7 6.6 7.1 96 0.3 NNW 2 7 1 4 1008.6 1008.7 0.0
28/01:30am 7.8 7.1 7.1 95 0.3 CALM 0 0 0 0 1009.2 1009.3 0.0
28/01:00am 8.1 6.4 7.5 96 0.3 SE 6 7 3 4 1009.5 1009.6 0.0
28/12:30am 7.7 6.3 7.1 96 0.3 SE 4 7 2 4 1009.9 1010.0 0.0
28/12:00am 7.4 6.3 6.7 95 0.3 NE 2 9 1 5 1009.9 1010.0 0.0
 
Date/Time
EST
Temp
°C
App
Temp
°C
Dew
Point
Rel
Hum
%
Delta-T
°C
Wind Press
QNH
hPa
Press
MSL
hPa
Rain
since 9 am
mm
Dir
 
Spd
km/h
Gust
km/h
Spd
kts
Gust
kts
27/11:30pm 7.6 6.8 6.5 93 0.5 CALM 0 0 0 0 1010.3 1010.4 0.0
27/11:00pm 8.0 6.9 7.1 94 0.4 N 2 7 1 4 1010.7 1010.8 0.0
27/10:30pm 8.1 5.6 6.7 91 0.6 NNW 9 13 5 7 1011.0 1011.1 0.0
27/10:00pm 8.5 6.1 7.1 91 0.7 N 9 13 5 7 1011.5 1011.6 0.0

Other Formats:

Comma delimited format used in spreadsheet applications
http://www.bom.gov.au/fwo/IDT60801/IDT60801.94957.axf

JavaScript Object Notation format (JSON) in row-major order
http://www.bom.gov.au/fwo/IDT60801/IDT60801.94957.json